createdAt,value
2019-04-06T00:03:40.194Z,2.70
2019-04-06T00:08:45.371Z,2.47
2019-04-06T00:13:50.615Z,2.40
2019-04-06T00:18:55.925Z,3.57
2019-04-06T00:24:01.324Z,2.17
2019-04-06T00:29:06.928Z,2.50
2019-04-06T00:34:12.249Z,2.50
2019-04-06T00:39:17.486Z,2.77
2019-04-06T00:44:23.111Z,3.00
2019-04-06T00:49:28.370Z,3.60
2019-04-06T00:54:33.529Z,3.27
2019-04-06T00:59:38.910Z,3.00
2019-04-06T01:04:44.318Z,2.90
2019-04-06T01:09:49.657Z,3.20
2019-04-06T01:14:54.983Z,2.70
2019-04-06T01:20:00.289Z,3.67
2019-04-06T01:25:06.104Z,2.93
2019-04-06T01:30:11.899Z,2.43
2019-04-06T01:35:17.094Z,2.80
2019-04-06T01:40:23.340Z,3.15
2019-04-06T01:45:28.735Z,3.03
2019-04-06T01:50:33.934Z,2.93
2019-04-06T01:55:39.204Z,2.27
2019-04-06T02:00:57.844Z,2.70
2019-04-06T02:06:03.826Z,2.40
2019-04-06T02:11:09.150Z,2.33
2019-04-06T02:16:14.441Z,2.47
2019-04-06T02:21:19.718Z,2.07
2019-04-06T02:26:30.725Z,2.00
2019-04-06T02:31:44.809Z,2.37
2019-04-06T02:36:59.231Z,1.90
2019-04-06T02:42:09.146Z,1.90
2019-04-06T02:47:14.359Z,1.80
2019-04-06T02:52:19.545Z,1.67
2019-04-06T02:57:24.772Z,2.10
2019-04-06T03:02:30.040Z,1.17
2019-04-06T03:07:35.642Z,1.20
2019-04-06T03:12:40.993Z,1.33
2019-04-06T03:17:46.144Z,1.37
2019-04-06T03:22:51.379Z,1.50
2019-04-06T03:27:56.526Z,1.60
2019-04-06T03:33:01.840Z,1.35
2019-04-06T03:38:07.218Z,1.60
2019-04-06T03:43:12.623Z,1.37
2019-04-06T03:48:17.855Z,1.60
2019-04-06T03:53:23.495Z,1.40
2019-04-06T03:58:28.714Z,1.80
2019-04-06T04:03:34.067Z,1.10
2019-04-06T04:08:39.344Z,1.10
2019-04-06T04:13:44.616Z,1.20
2019-04-06T04:18:49.962Z,1.00
2019-04-06T04:23:55.236Z,1.00
2019-04-06T04:29:00.443Z,0.90
2019-04-06T04:34:05.820Z,1.20
2019-04-06T04:39:11.124Z,1.60
2019-04-06T04:44:16.471Z,2.00
2019-04-06T04:49:21.785Z,2.33
2019-04-06T04:54:27.073Z,2.77
2019-04-06T04:59:32.406Z,2.85
2019-04-06T05:04:37.742Z,3.02
2019-04-06T05:09:42.992Z,3.47
2019-04-06T05:14:57.777Z,3.70
2019-04-06T05:20:03.192Z,3.43
2019-04-06T05:25:09.332Z,4.00
2019-04-06T05:30:15.497Z,4.27
2019-04-06T05:35:20.808Z,4.43
2019-04-06T05:40:26.116Z,4.13
2019-04-06T05:45:31.357Z,4.17
2019-04-06T05:50:36.627Z,4.67
2019-04-06T05:55:42.088Z,4.40
2019-04-06T06:00:47.352Z,4.30
2019-04-06T06:05:52.874Z,4.90
2019-04-06T06:10:58.583Z,4.60
2019-04-06T06:16:04.003Z,5.77
2019-04-06T06:21:09.261Z,6.20
2019-04-06T06:26:14.656Z,6.03
2019-04-06T06:31:20.172Z,6.55
2019-04-06T06:36:25.673Z,6.63
2019-04-06T06:41:31.034Z,7.20
2019-04-06T06:46:36.345Z,7.22
2019-04-06T06:51:41.752Z,6.40
2019-04-06T06:56:47.098Z,6.53
2019-04-06T07:01:52.517Z,6.20
2019-04-06T07:06:58.119Z,5.00
2019-04-06T07:12:03.451Z,5.67
2019-04-06T07:17:08.908Z,5.43
2019-04-06T07:22:14.171Z,5.00
2019-04-06T07:27:19.572Z,3.70
2019-04-06T07:32:26.019Z,3.00
2019-04-06T07:37:31.331Z,2.47
2019-04-06T07:42:36.931Z,3.73
2019-04-06T07:47:42.232Z,4.57
2019-04-06T07:52:49.852Z,6.80
2019-04-06T07:57:55.358Z,6.17
2019-04-06T08:03:05.332Z,5.87
2019-04-06T08:08:10.711Z,6.27
2019-04-06T08:13:16.267Z,5.77
2019-04-06T08:18:21.871Z,5.40
2019-04-06T08:23:27.350Z,4.87
2019-04-06T08:28:32.731Z,4.58
2019-04-06T08:33:38.186Z,3.47
2019-04-06T08:38:43.532Z,3.80
2019-04-06T08:43:48.772Z,4.60
2019-04-06T08:48:54.092Z,4.10
2019-04-06T08:53:59.587Z,3.77
2019-04-06T08:59:11.597Z,4.03
2019-04-06T09:04:12.592Z,3.70
2019-04-06T09:09:17.912Z,4.33
2019-04-06T09:14:25.353Z,4.57
2019-04-06T09:19:30.774Z,3.87
2019-04-06T09:24:36.225Z,4.80
2019-04-06T09:29:41.652Z,4.13
2019-04-06T09:34:47.131Z,4.10
2019-04-06T09:39:53.598Z,3.93
2019-04-06T09:45:06.149Z,3.70
2019-04-06T09:50:25.131Z,4.20
2019-04-06T09:55:40.786Z,4.40
2019-04-06T10:00:55.052Z,4.07
2019-04-06T10:06:09.132Z,4.33
2019-04-06T10:11:23.012Z,4.63
2019-04-06T10:16:37.072Z,5.40
2019-04-06T10:21:58.594Z,5.47
2019-04-06T10:27:12.032Z,7.40
2019-04-06T10:32:29.051Z,10.07
2019-04-06T10:37:43.012Z,13.10
2019-04-06T10:43:00.349Z,13.47
2019-04-06T10:48:12.827Z,16.03
2019-04-06T10:53:27.186Z,15.97
2019-04-06T10:58:45.740Z,14.20
2019-04-06T11:03:59.025Z,15.60
2019-04-06T11:09:15.293Z,14.87
2019-04-06T11:14:29.058Z,16.00
2019-04-06T11:19:46.126Z,15.85
2019-04-06T11:25:10.318Z,15.87
2019-04-06T11:30:22.466Z,16.63
2019-04-06T11:35:36.006Z,22.80
2019-04-06T11:40:50.671Z,26.93
2019-04-06T11:46:04.933Z,29.73
2019-04-06T11:51:25.737Z,32.73
2019-04-06T11:56:40.592Z,38.63
2019-04-06T12:02:04.893Z,34.77
2019-04-06T12:07:19.256Z,39.03
2019-04-06T12:12:43.471Z,41.13
2019-04-06T12:18:00.037Z,43.40
2019-04-06T12:23:14.105Z,40.67
2019-04-06T12:28:27.952Z,39.87
2019-04-06T12:33:49.411Z,39.45
2019-04-06T12:39:04.006Z,41.50
2019-04-06T12:44:19.864Z,39.57
2019-04-06T12:49:34.057Z,40.10
2019-04-06T12:54:50.927Z,36.48
2019-04-06T13:00:05.095Z,35.57
2019-04-06T13:05:19.911Z,36.57
2019-04-06T13:10:33.002Z,33.50
2019-04-06T13:15:46.998Z,32.83
2019-04-06T13:21:01.098Z,31.30
2019-04-06T13:26:15.127Z,26.33
2019-04-06T13:31:32.717Z,28.77
2019-04-06T13:36:45.732Z,30.43
2019-04-06T13:41:59.812Z,31.15
2019-04-06T13:47:24.053Z,34.37
2019-04-06T13:52:38.014Z,34.03
2019-04-06T13:57:48.437Z,33.33
2019-04-06T14:03:00.601Z,32.40
2019-04-06T14:08:14.337Z,29.10
2019-04-06T14:13:27.801Z,30.60
2019-04-06T14:18:42.019Z,31.23
2019-04-06T14:24:00.013Z,30.30
2019-04-06T14:29:14.032Z,32.50
2019-04-06T14:34:30.336Z,33.77
2019-04-06T14:39:49.978Z,34.83
2019-04-06T14:45:04.827Z,34.20
2019-04-06T14:50:19.085Z,34.40
2019-04-06T14:55:39.242Z,36.68
2019-04-06T15:00:54.010Z,37.10
2019-04-06T15:06:14.853Z,34.57
2019-04-06T15:11:29.209Z,35.63
2019-04-06T15:16:42.390Z,36.65
2019-04-06T15:21:59.746Z,40.27
2019-04-06T15:27:13.423Z,45.13
2019-04-06T15:32:27.014Z,44.07
2019-04-06T15:37:42.400Z,46.77
2019-04-06T15:42:57.252Z,41.57
2019-04-06T15:48:13.325Z,41.33
2019-04-06T15:53:30.292Z,42.90
2019-04-06T15:58:41.102Z,43.60
2019-04-06T16:03:55.170Z,39.53
2019-04-06T16:09:15.094Z,39.20
2019-04-06T16:14:31.974Z,39.00
2019-04-06T16:19:45.465Z,39.63
2019-04-06T16:24:59.558Z,37.60
2019-04-06T16:30:16.341Z,39.10
2019-04-06T16:35:30.031Z,37.60
2019-04-06T16:40:44.014Z,40.20
2019-04-06T16:46:00.653Z,38.53
2019-04-06T16:51:16.694Z,41.20
2019-04-06T16:56:28.815Z,41.27
2019-04-06T17:01:43.772Z,42.15
2019-04-06T17:07:00.718Z,43.87
2019-04-06T17:12:15.934Z,46.17
2019-04-06T17:17:29.818Z,47.73
2019-04-06T17:22:53.105Z,47.53
2019-04-06T17:28:05.534Z,46.80
2019-04-06T17:33:19.052Z,48.40
2019-04-06T17:38:30.560Z,48.33
2019-04-06T17:43:47.490Z,50.57
2019-04-06T17:49:10.174Z,48.90
2019-04-06T17:54:24.390Z,51.47
2019-04-06T17:59:45.237Z,50.60
2019-04-06T18:05:05.932Z,45.90
2019-04-06T18:10:18.535Z,50.43
2019-04-06T18:15:24.407Z,50.20
2019-04-06T18:20:30.986Z,51.90
2019-04-06T18:25:37.275Z,54.05
2019-04-06T18:30:43.087Z,53.73
2019-04-06T18:35:51.646Z,55.73
2019-04-06T18:40:57.039Z,52.07
2019-04-06T18:46:02.577Z,52.43
2019-04-06T18:51:07.883Z,58.50
2019-04-06T18:56:13.523Z,49.13
2019-04-06T19:01:19.314Z,51.90
2019-04-06T19:06:25.714Z,51.83
2019-04-06T19:11:31.312Z,48.38
2019-04-06T19:16:36.735Z,46.55
2019-04-06T19:21:42.568Z,48.20
2019-04-06T19:26:47.874Z,46.43
2019-04-06T19:31:54.451Z,47.63
2019-04-06T19:37:00.206Z,47.47
2019-04-06T19:42:06.434Z,43.15
2019-04-06T19:47:12.059Z,42.73
2019-04-06T19:52:17.562Z,42.97
2019-04-06T19:57:22.904Z,43.90
2019-04-06T20:02:28.759Z,42.43
2019-04-06T20:07:34.323Z,45.50
2019-04-06T20:12:40.024Z,50.87
2019-04-06T20:17:45.322Z,49.67
2019-04-06T20:22:50.622Z,47.00
2019-04-06T20:27:56.573Z,49.10
2019-04-06T20:33:02.051Z,45.63
2019-04-06T20:38:08.843Z,54.77
2019-04-06T20:43:14.521Z,45.63
2019-04-06T20:48:20.433Z,42.70
2019-04-06T20:53:25.902Z,43.47
2019-04-06T20:58:31.365Z,45.57
2019-04-06T21:03:36.602Z,47.87
2019-04-06T21:08:42.018Z,47.40
2019-04-06T21:13:47.307Z,51.83
2019-04-06T21:18:52.753Z,53.60
2019-04-06T21:23:58.218Z,90.67
2019-04-06T21:29:03.726Z,61.90
2019-04-06T21:34:12.685Z,42.60
2019-04-06T21:39:16.406Z,43.17
2019-04-06T21:44:23.020Z,37.23
2019-04-06T21:49:28.242Z,30.40
2019-04-06T21:54:34.414Z,28.63
2019-04-06T21:59:41.827Z,26.17
2019-04-06T22:04:47.202Z,19.80
2019-04-06T22:09:52.678Z,17.03
2019-04-06T22:14:58.118Z,16.37
2019-04-06T22:20:04.070Z,15.00
2019-04-06T22:25:09.526Z,13.60
2019-04-06T22:30:18.978Z,12.80
2019-04-06T22:35:23.990Z,13.13
2019-04-06T22:40:29.461Z,13.80
2019-04-06T22:45:35.951Z,13.05
2019-04-06T22:50:42.267Z,13.30
2019-04-06T22:55:47.482Z,13.33
2019-04-06T23:00:57.342Z,12.97
2019-04-06T23:06:06.321Z,12.57
2019-04-06T23:11:11.732Z,11.90
2019-04-06T23:16:17.076Z,12.10
2019-04-06T23:21:22.890Z,12.23
2019-04-06T23:26:28.150Z,12.23
2019-04-06T23:31:33.618Z,12.27
2019-04-06T23:36:39.450Z,12.10
2019-04-06T23:41:45.026Z,12.50
2019-04-06T23:46:50.991Z,12.40
2019-04-06T23:51:56.439Z,12.03
2019-04-06T23:57:02.522Z,11.57
